Time;durP1;ratioP1;P1;durP2;ratioP2;P2;SDS_P1;SDS_P2;PMS_P1;PMS_P2;Temp;Humidity;BMP_temperature;BMP_pressure;BME280_temperature;BME280_humidity;BME280_pressure;Samples;Min_cycle;Max_cycle;Signal;HPM_P1;HPM_P2
2023/07/16 00:00:43;;;;;;;1.60;1.50;;;;;;;;;;5054450;28;20472;-60
2023/07/16 00:03:09;;;;;;;2.83;1.97;;;;;;;;;;5053569;23;20950;-60
2023/07/16 00:05:38;;;;;;;1.50;1.40;;;;;;;;;;5034712;28;20490;-60
2023/07/16 00:08:04;;;;;;;2.43;1.70;;;;;;;;;;5034478;28;20958;-60
2023/07/16 00:10:30;;;;;;;1.90;1.63;;;;;;;;;;5034485;28;20452;-61
2023/07/16 00:12:56;;;;;;;3.20;1.83;;;;;;;;;;5034679;28;20437;-60
2023/07/16 00:15:22;;;;;;;1.50;1.40;;;;;;;;;;5034221;28;20456;-58
2023/07/16 00:17:48;;;;;;;2.00;1.90;;;;;;;;;;5033878;28;20473;-59
2023/07/16 00:20:14;;;;;;;2.40;1.43;;;;;;;;;;5034402;28;20805;-59
2023/07/16 00:22:40;;;;;;;5.53;2.17;;;;;;;;;;5034087;28;20879;-59
2023/07/16 00:25:07;;;;;;;2.23;1.67;;;;;;;;;;5033141;28;20488;-59
2023/07/16 00:27:35;;;;;;;2.23;2.13;;;;;;;;;;5034179;28;20529;-59
2023/07/16 00:30:01;;;;;;;1.87;1.80;;;;;;;;;;5034099;28;20416;-59
2023/07/16 00:32:30;;;;;;;1.97;1.97;;;;;;;;;;5034258;28;20448;-58
2023/07/16 00:34:56;;;;;;;2.00;1.90;;;;;;;;;;5034088;28;20475;-59
2023/07/16 00:37:24;;;;;;;1.90;1.80;;;;;;;;;;5034148;28;20426;-58
2023/07/16 00:39:53;;;;;;;1.90;1.80;;;;;;;;;;5034250;28;20442;-59
2023/07/16 00:42:19;;;;;;;2.30;1.70;;;;;;;;;;5033812;28;20520;-58
2023/07/16 00:44:45;;;;;;;2.80;1.73;;;;;;;;;;5034035;28;20424;-58
2023/07/16 00:47:14;;;;;;;3.13;1.50;;;;;;;;;;5033943;28;20473;-58
2023/07/16 00:49:40;;;;;;;3.10;2.10;;;;;;;;;;5034075;28;20496;-58
2023/07/16 00:52:08;;;;;;;1.40;1.40;;;;;;;;;;5033657;28;20426;-59
2023/07/16 00:54:34;;;;;;;1.73;1.73;;;;;;;;;;5034051;28;20510;-59
2023/07/16 00:57:00;;;;;;;1.87;1.77;;;;;;;;;;5033599;28;20422;-58
2023/07/16 00:59:26;;;;;;;6.00;2.10;;;;;;;;;;5033556;28;20912;-58
2023/07/16 01:01:52;;;;;;;2.60;1.80;;;;;;;;;;5033710;28;20509;-58
2023/07/16 01:04:18;;;;;;;4.87;2.40;;;;;;;;;;5033254;28;20897;-58
2023/07/16 01:06:48;;;;;;;1.97;1.80;;;;;;;;;;5032478;28;20432;-59
2023/07/16 01:09:18;;;;;;;2.57;1.73;;;;;;;;;;5033526;28;21064;-59
2023/07/16 01:11:46;;;;;;;2.23;1.50;;;;;;;;;;5033394;28;20414;-59
2023/07/16 01:14:17;;;;;;;2.60;1.80;;;;;;;;;;5033371;28;20471;-58
2023/07/16 01:16:46;;;;;;;1.97;1.80;;;;;;;;;;5033404;28;20410;-58
2023/07/16 01:19:13;;;;;;;2.70;1.47;;;;;;;;;;5033185;28;20433;-57
2023/07/16 01:21:45;;;;;;;2.50;1.57;;;;;;;;;;5033221;28;20476;-59
2023/07/16 01:24:26;;;;;;;2.57;2.07;;;;;;;;;;5033244;28;20577;-58
2023/07/16 01:27:09;;;;;;;1.50;1.50;;;;;;;;;;5033157;28;20826;-58
2023/07/16 01:29:55;;;;;;;2.10;1.70;;;;;;;;;;5032295;28;20414;-58
2023/07/16 01:32:21;;;;;;;1.70;1.60;;;;;;;;;;5033073;28;20480;-58
2023/07/16 01:34:50;;;;;;;1.60;1.50;;;;;;;;;;5031772;28;20519;-56
2023/07/16 01:37:16;;;;;;;1.50;1.50;;;;;;;;;;5032807;28;20450;-57
2023/07/16 01:39:42;;;;;;;2.87;1.60;;;;;;;;;;5032978;28;20414;-56
2023/07/16 01:42:08;;;;;;;2.30;2.10;;;;;;;;;;5032826;28;20489;-57
2023/07/16 01:44:34;;;;;;;2.27;2.10;;;;;;;;;;5032784;28;20782;-57
2023/07/16 01:47:08;;;;;;;2.30;1.83;;;;;;;;;;5032881;28;20472;-57
2023/07/16 01:49:34;;;;;;;3.80;1.53;;;;;;;;;;5032497;28;20405;-56
2023/07/16 01:52:01;;;;;;;1.90;1.90;;;;;;;;;;5032867;28;20490;-57
2023/07/16 01:54:27;;;;;;;1.97;1.70;;;;;;;;;;5032417;28;20423;-56
2023/07/16 01:56:53;;;;;;;1.80;1.70;;;;;;;;;;5032672;28;20423;-56
2023/07/16 01:59:19;;;;;;;2.90;1.90;;;;;;;;;;5032482;28;20445;-56
2023/07/16 02:01:48;;;;;;;2.00;1.90;;;;;;;;;;5032628;28;20499;-56
2023/07/16 02:04:14;;;;;;;2.17;2.07;;;;;;;;;;5032270;28;20432;-56
2023/07/16 02:06:39;;;;;;;1.80;1.70;;;;;;;;;;5032355;28;20412;-56
2023/07/16 02:09:05;;;;;;;1.63;1.53;;;;;;;;;;5032490;28;20547;-56
2023/07/16 02:11:34;;;;;;;1.77;1.67;;;;;;;;;;5043732;28;20801;-55
2023/07/16 02:14:00;;;;;;;5.00;2.00;;;;;;;;;;5052268;28;20448;-55
2023/07/16 02:16:26;;;;;;;2.17;1.97;;;;;;;;;;5051983;28;20779;-57
2023/07/16 02:18:52;;;;;;;2.20;2.00;;;;;;;;;;5051994;28;20429;-56
2023/07/16 02:21:20;;;;;;;3.17;2.20;;;;;;;;;;5051956;28;20472;-56
2023/07/16 02:23:46;;;;;;;2.30;1.70;;;;;;;;;;5052159;28;20439;-56
2023/07/16 02:26:12;;;;;;;1.80;1.70;;;;;;;;;;5052112;28;20541;-56
2023/07/16 02:28:40;;;;;;;1.20;1.20;;;;;;;;;;5051976;28;20417;-56
2023/07/16 02:31:06;;;;;;;2.10;1.80;;;;;;;;;;5052104;28;20436;-56
2023/07/16 02:33:32;;;;;;;2.10;1.77;;;;;;;;;;5052129;28;20474;-56
2023/07/16 02:35:58;;;;;;;2.63;2.00;;;;;;;;;;5051857;28;20447;-55
2023/07/16 02:38:24;;;;;;;4.50;1.53;;;;;;;;;;5052119;28;20416;-55
2023/07/16 02:40:50;;;;;;;2.70;1.93;;;;;;;;;;5051768;28;20883;-56
2023/07/16 02:43:16;;;;;;;5.33;1.53;;;;;;;;;;5055870;28;20431;-56
2023/07/16 02:45:42;;;;;;;3.03;1.90;;;;;;;;;;5056152;28;20436;-56
2023/07/16 02:48:11;;;;;;;4.33;1.70;;;;;;;;;;5055908;28;20840;-57
2023/07/16 02:50:37;;;;;;;1.63;1.63;;;;;;;;;;5054786;28;20420;-56
2023/07/16 02:53:09;;;;;;;2.80;2.10;;;;;;;;;;5055773;28;20417;-56
2023/07/16 02:55:35;;;;;;;1.80;1.70;;;;;;;;;;5056054;28;20451;-56
2023/07/16 02:58:04;;;;;;;6.23;1.90;;;;;;;;;;5054649;28;20423;-56
2023/07/16 03:00:32;;;;;;;4.90;1.87;;;;;;;;;;5055766;28;20413;-57
2023/07/16 03:03:01;;;;;;;8.20;1.80;;;;;;;;;;5055481;28;20428;-56
2023/07/16 03:05:28;;;;;;;2.73;1.70;;;;;;;;;;5054666;28;20450;-57
2023/07/16 03:07:54;;;;;;;3.00;2.13;;;;;;;;;;5055808;28;20423;-55
2023/07/16 03:10:20;;;;;;;4.33;2.20;;;;;;;;;;5055577;28;20442;-59
2023/07/16 03:12:46;;;;;;;1.70;1.70;;;;;;;;;;5055336;28;20900;-59
2023/07/16 03:15:12;;;;;;;5.30;3.37;;;;;;;;;;5053812;28;20438;-59
2023/07/16 03:17:38;;;;;;;6.03;4.13;;;;;;;;;;5055939;28;20406;-59
2023/07/16 03:20:05;;;;;;;10.70;7.90;;;;;;;;;;5054213;28;20989;-59
2023/07/16 03:22:33;;;;;;;3.37;1.90;;;;;;;;;;5055333;28;20463;-58
2023/07/16 03:25:02;;;;;;;2.50;2.40;;;;;;;;;;5055205;28;20411;-55
2023/07/16 03:27:30;;;;;;;2.50;1.73;;;;;;;;;;5055561;28;20462;-55
2023/07/16 03:29:59;;;;;;;2.27;2.07;;;;;;;;;;5055124;28;20822;-56
2023/07/16 03:32:27;;;;;;;4.87;2.23;;;;;;;;;;5055163;28;20423;-56
2023/07/16 03:34:53;;;;;;;4.40;1.83;;;;;;;;;;5053674;28;20420;-56
2023/07/16 03:37:19;;;;;;;1.97;1.87;;;;;;;;;;5055102;28;20435;-55
2023/07/16 03:39:45;;;;;;;2.90;1.70;;;;;;;;;;5054942;28;20415;-55
2023/07/16 03:42:11;;;;;;;2.70;1.80;;;;;;;;;;5055221;28;20458;-56
2023/07/16 03:44:37;;;;;;;4.77;2.10;;;;;;;;;;5054887;28;20407;-55
2023/07/16 03:47:03;;;;;;;2.00;1.83;;;;;;;;;;5055057;28;20409;-57
2023/07/16 03:49:31;;;;;;;2.07;1.97;;;;;;;;;;5053629;28;20530;-56
2023/07/16 03:51:57;;;;;;;1.90;1.90;;;;;;;;;;5054987;28;20419;-56
2023/07/16 03:54:25;;;;;;;4.20;1.90;;;;;;;;;;5053484;28;20444;-53
2023/07/16 03:56:52;;;;;;;3.73;2.10;;;;;;;;;;5054835;28;20416;-53
2023/07/16 03:59:20;;;;;;;2.93;1.83;;;;;;;;;;5054760;28;20439;-54
2023/07/16 04:01:46;;;;;;;3.30;2.00;;;;;;;;;;5053198;28;20507;-54
2023/07/16 04:04:12;;;;;;;1.53;1.53;;;;;;;;;;5054480;28;20429;-54
2023/07/16 04:06:38;;;;;;;2.10;2.00;;;;;;;;;;5054669;28;20428;-54
2023/07/16 04:09:04;;;;;;;2.50;1.80;;;;;;;;;;5054613;28;20410;-54
2023/07/16 04:11:30;;;;;;;3.33;2.20;;;;;;;;;;5054624;28;20447;-53
2023/07/16 04:13:56;;;;;;;4.40;1.80;;;;;;;;;;5054548;28;20412;-53
2023/07/16 04:16:22;;;;;;;7.20;2.03;;;;;;;;;;5054405;28;20458;-54
2023/07/16 04:18:48;;;;;;;2.93;1.60;;;;;;;;;;5054166;28;20786;-53
2023/07/16 04:21:14;;;;;;;1.90;1.80;;;;;;;;;;5054323;28;20550;-54
2023/07/16 04:23:40;;;;;;;1.73;1.73;;;;;;;;;;5053220;28;20411;-53
2023/07/16 04:26:06;;;;;;;2.07;1.97;;;;;;;;;;5053992;28;20764;-54
2023/07/16 04:28:32;;;;;;;2.10;1.73;;;;;;;;;;5054233;28;20432;-55
2023/07/16 04:30:58;;;;;;;1.30;1.30;;;;;;;;;;5054630;28;21047;-55
2023/07/16 04:33:24;;;;;;;1.80;1.57;;;;;;;;;;5054332;28;20533;-55
2023/07/16 04:35:52;;;;;;;6.37;1.60;;;;;;;;;;5054674;28;20411;-55
2023/07/16 04:38:18;;;;;;;2.20;2.00;;;;;;;;;;5054229;28;20930;-55
2023/07/16 04:40:44;;;;;;;2.30;2.10;;;;;;;;;;5054149;28;20408;-55
2023/07/16 04:43:10;;;;;;;6.50;1.93;;;;;;;;;;5053760;28;20554;-55
2023/07/16 04:45:39;;;;;;;3.60;1.70;;;;;;;;;;5054020;28;20471;-55
2023/07/16 04:48:06;;;;;;;1.53;1.53;;;;;;;;;;5053833;28;20517;-54
2023/07/16 04:50:32;;;;;;;1.37;1.37;;;;;;;;;;5053936;28;20503;-54
2023/07/16 04:52:57;;;;;;;2.10;2.00;;;;;;;;;;5053733;28;20821;-53
2023/07/16 04:55:24;;;;;;;3.83;1.67;;;;;;;;;;5053862;28;20432;-53
2023/07/16 04:57:53;;;;;;;1.70;1.60;;;;;;;;;;5053808;28;21169;-53
2023/07/16 05:00:19;;;;;;;6.07;2.17;;;;;;;;;;5054206;28;20482;-54
2023/07/16 05:02:45;;;;;;;3.53;1.90;;;;;;;;;;5053561;28;20507;-54
2023/07/16 05:05:11;;;;;;;3.80;1.53;;;;;;;;;;5053146;28;20453;-54
2023/07/16 05:07:37;;;;;;;2.10;1.90;;;;;;;;;;5053416;28;20425;-57
2023/07/16 05:10:03;;;;;;;2.97;1.83;;;;;;;;;;5053001;28;20408;-57
2023/07/16 05:12:31;;;;;;;3.13;2.20;;;;;;;;;;5053341;28;20447;-57
2023/07/16 05:14:57;;;;;;;2.77;1.97;;;;;;;;;;5053491;28;20428;-56
2023/07/16 05:17:23;;;;;;;2.53;1.70;;;;;;;;;;5053110;28;20758;-57
2023/07/16 05:19:49;;;;;;;4.50;1.70;;;;;;;;;;5053287;28;20416;-56
2023/07/16 05:22:15;;;;;;;1.70;1.60;;;;;;;;;;5052877;28;20471;-56
2023/07/16 05:24:41;;;;;;;3.77;1.50;;;;;;;;;;5052969;28;20443;-57
2023/07/16 05:27:07;;;;;;;5.03;2.23;;;;;;;;;;5052708;28;20412;-57
2023/07/16 05:29:35;;;;;;;5.17;2.30;;;;;;;;;;5052935;28;20462;-56
2023/07/16 05:32:02;;;;;;;2.13;2.03;;;;;;;;;;5052613;28;20451;-54
2023/07/16 05:34:28;;;;;;;6.13;2.00;;;;;;;;;;5052736;28;20421;-54
2023/07/16 05:36:54;;;;;;;4.70;1.77;;;;;;;;;;5052771;28;20412;-54
2023/07/16 05:39:21;;;;;;;1.77;1.67;;;;;;;;;;5052831;28;20440;-55
2023/07/16 05:41:47;;;;;;;1.90;1.80;;;;;;;;;;5052821;28;20477;-54
2023/07/16 05:44:13;;;;;;;2.47;2.37;;;;;;;;;;5051529;28;20506;-55
2023/07/16 05:46:39;;;;;;;3.67;2.10;;;;;;;;;;5053027;28;20536;-54
2023/07/16 05:49:07;;;;;;;2.20;2.10;;;;;;;;;;5052773;28;20443;-54
2023/07/16 05:51:36;;;;;;;2.10;1.80;;;;;;;;;;5052873;28;20528;-54
2023/07/16 05:54:02;;;;;;;1.80;1.70;;;;;;;;;;5051487;28;20421;-54
2023/07/16 05:56:28;;;;;;;2.27;1.73;;;;;;;;;;5052875;28;20486;-53
2023/07/16 05:58:54;;;;;;;2.23;2.03;;;;;;;;;;5052586;28;20887;-55
2023/07/16 06:01:20;;;;;;;2.83;1.87;;;;;;;;;;5052342;28;20469;-54
2023/07/16 06:03:46;;;;;;;2.50;2.00;;;;;;;;;;5051202;28;20793;-55
2023/07/16 06:06:12;;;;;;;2.77;1.97;;;;;;;;;;5052545;28;20504;-54
2023/07/16 06:08:40;;;;;;;4.90;1.90;;;;;;;;;;5052287;28;20411;-54
2023/07/16 06:11:06;;;;;;;1.80;1.70;;;;;;;;;;5052441;28;20418;-55
2023/07/16 06:13:32;;;;;;;3.73;3.00;;;;;;;;;;5052122;28;20441;-55
2023/07/16 06:15:58;;;;;;;6.13;2.23;;;;;;;;;;5051490;28;20407;-54
2023/07/16 06:18:26;;;;;;;1.77;1.67;;;;;;;;;;5052084;28;20778;-55
2023/07/16 06:20:54;;;;;;;1.77;1.67;;;;;;;;;;5051945;28;20466;-54
2023/07/16 06:23:20;;;;;;;2.20;2.00;;;;;;;;;;5052178;28;20413;-54
2023/07/16 06:25:48;;;;;;;2.07;1.67;;;;;;;;;;5051814;28;20437;-53
2023/07/16 06:28:14;;;;;;;4.27;1.97;;;;;;;;;;5051457;28;20423;-54
2023/07/16 06:30:42;;;;;;;4.60;1.97;;;;;;;;;;5052268;28;20454;-54
2023/07/16 06:33:08;;;;;;;3.07;1.93;;;;;;;;;;5052049;28;20936;-55
2023/07/16 06:35:37;;;;;;;15.17;13.77;;;;;;;;;;5052109;28;20502;-54
2023/07/16 06:38:04;;;;;;;2.20;1.63;;;;;;;;;;5052128;28;20424;-55
2023/07/16 06:40:30;;;;;;;2.70;1.70;;;;;;;;;;5052115;28;20496;-56
2023/07/16 06:42:56;;;;;;;2.00;1.80;;;;;;;;;;5052219;28;20434;-54
2023/07/16 06:45:22;;;;;;;2.57;2.47;;;;;;;;;;5051925;28;20426;-55
2023/07/16 06:47:51;;;;;;;1.70;1.47;;;;;;;;;;5051981;28;20450;-55
2023/07/16 06:50:17;;;;;;;1.90;1.80;;;;;;;;;;5052342;28;20416;-55
2023/07/16 06:52:43;;;;;;;2.23;1.90;;;;;;;;;;5052212;28;20512;-54
2023/07/16 06:55:09;;;;;;;1.63;1.30;;;;;;;;;;5052351;28;20419;-55
2023/07/16 06:57:37;;;;;;;1.43;1.33;;;;;;;;;;5052085;28;20965;-56
2023/07/16 07:00:04;;;;;;;1.97;1.30;;;;;;;;;;5052046;28;20422;-55
2023/07/16 07:02:30;;;;;;;1.57;1.57;;;;;;;;;;5050495;28;20836;-56
2023/07/16 07:04:55;;;;;;;2.40;1.50;;;;;;;;;;5051825;28;20430;-54
2023/07/16 07:07:21;;;;;;;2.20;1.57;;;;;;;;;;5051999;28;20770;-55
2023/07/16 07:09:51;;;;;;;2.60;2.13;;;;;;;;;;5052389;28;20426;-56
2023/07/16 07:12:17;;;;;;;4.20;1.93;;;;;;;;;;5051867;28;20425;-54
2023/07/16 07:14:43;;;;;;;3.73;2.50;;;;;;;;;;5052061;28;20416;-54
2023/07/16 07:17:11;;;;;;;8.90;2.20;;;;;;;;;;5052156;28;20511;-54
2023/07/16 07:19:39;;;;;;;6.90;1.77;;;;;;;;;;5052020;28;20784;-54
2023/07/16 07:22:05;;;;;;;4.87;2.13;;;;;;;;;;5052107;28;20460;-54
2023/07/16 07:24:31;;;;;;;3.00;2.00;;;;;;;;;;5052214;28;20897;-56
2023/07/16 07:26:57;;;;;;;2.20;1.97;;;;;;;;;;5052468;28;20426;-54
2023/07/16 07:29:25;;;;;;;2.30;2.13;;;;;;;;;;5055882;28;20415;-54
2023/07/16 07:31:52;;;;;;;3.37;2.63;;;;;;;;;;5055741;28;20459;-56
2023/07/16 07:34:21;;;;;;;1.73;1.63;;;;;;;;;;5055944;28;20413;-56
2023/07/16 07:36:49;;;;;;;2.17;1.50;;;;;;;;;;5055256;28;20975;-56
2023/07/16 07:39:16;;;;;;;3.73;1.80;;;;;;;;;;5055616;28;20442;-55
2023/07/16 07:41:42;;;;;;;2.63;1.80;;;;;;;;;;5055699;28;20559;-57
2023/07/16 07:44:08;;;;;;;2.63;1.70;;;;;;;;;;5054873;28;20522;-56
2023/07/16 07:46:34;;;;;;;1.87;1.77;;;;;;;;;;5053752;28;20416;-58
2023/07/16 07:49:00;;;;;;;6.37;2.33;;;;;;;;;;5055315;28;20440;-58
2023/07/16 07:51:26;;;;;;;1.90;1.70;;;;;;;;;;5055198;28;20469;-58
2023/07/16 07:53:52;;;;;;;3.07;2.23;;;;;;;;;;5055066;28;20503;-58
2023/07/16 07:56:20;;;;;;;5.10;2.20;;;;;;;;;;5055225;28;20505;-58
2023/07/16 07:58:46;;;;;;;2.70;1.53;;;;;;;;;;5055268;28;20468;-58
2023/07/16 08:01:15;;;;;;;3.43;2.13;;;;;;;;;;5055026;28;20558;-56
2023/07/16 08:03:43;;;;;;;6.30;1.83;;;;;;;;;;5054918;28;20474;-58
2023/07/16 08:06:11;;;;;;;3.97;2.30;;;;;;;;;;5054976;28;20432;-57
2023/07/16 08:08:37;;;;;;;4.40;2.20;;;;;;;;;;5054828;28;20909;-57
2023/07/16 08:11:03;;;;;;;2.17;1.83;;;;;;;;;;5054921;28;20428;-58
2023/07/16 08:13:29;;;;;;;3.70;2.20;;;;;;;;;;5055137;28;20793;-58
2023/07/16 08:15:58;;;;;;;4.20;1.87;;;;;;;;;;5054829;28;20498;-56
2023/07/16 08:18:24;;;;;;;2.03;1.90;;;;;;;;;;5054579;28;20527;-59
2023/07/16 08:20:50;;;;;;;3.67;1.97;;;;;;;;;;5054413;28;20418;-59
2023/07/16 08:23:16;;;;;;;6.20;2.23;;;;;;;;;;5054393;28;20409;-59
2023/07/16 08:25:44;;;;;;;3.47;1.73;;;;;;;;;;5054410;28;20743;-59
2023/07/16 08:28:11;;;;;;;9.10;2.07;;;;;;;;;;5054523;28;20460;-59
2023/07/16 08:30:37;;;;;;;3.03;2.07;;;;;;;;;;5052780;28;20494;-59
2023/07/16 08:33:03;;;;;;;3.40;3.10;;;;;;;;;;5054452;28;20820;-59
2023/07/16 08:35:29;;;;;;;4.20;2.10;;;;;;;;;;5053930;28;20455;-59
2023/07/16 08:37:55;;;;;;;4.20;2.20;;;;;;;;;;5054345;28;20407;-59
2023/07/16 08:40:23;;;;;;;1.80;1.70;;;;;;;;;;5052462;28;20832;-59
2023/07/16 08:42:50;;;;;;;4.83;1.87;;;;;;;;;;5054150;28;20506;-59
2023/07/16 08:45:16;;;;;;;2.30;1.87;;;;;;;;;;5053955;28;20411;-59
2023/07/16 08:47:42;;;;;;;2.97;1.87;;;;;;;;;;5054255;28;20774;-59
2023/07/16 08:50:09;;;;;;;2.70;2.23;;;;;;;;;;5054238;28;20912;-59
2023/07/16 08:52:35;;;;;;;3.93;1.60;;;;;;;;;;5054064;28;20433;-59
2023/07/16 08:55:04;;;;;;;2.20;2.00;;;;;;;;;;5053942;28;20466;-58
2023/07/16 08:57:32;;;;;;;1.80;1.70;;;;;;;;;;5054058;28;20412;-58
2023/07/16 08:59:58;;;;;;;2.20;2.00;;;;;;;;;;5053089;28;20446;-58
2023/07/16 09:02:24;;;;;;;6.10;1.87;;;;;;;;;;5052975;28;20451;-58
2023/07/16 09:04:54;;;;;;;5.63;1.80;;;;;;;;;;5053101;28;20428;-59
2023/07/16 09:07:22;;;;;;;3.00;2.23;;;;;;;;;;5053428;28;20437;-58
2023/07/16 09:09:58;;;;;;;6.10;1.80;;;;;;;;;;5053385;28;20436;-59
2023/07/16 09:12:26;;;;;;;7.60;2.00;;;;;;;;;;5053744;28;20414;-59
2023/07/16 09:14:52;;;;;;;6.57;2.17;;;;;;;;;;5053427;28;20803;-59
2023/07/16 09:17:25;;;;;;;2.40;2.00;;;;;;;;;;5052197;28;20512;-59
2023/07/16 09:19:51;;;;;;;3.37;1.80;;;;;;;;;;5053254;28;20488;-59
2023/07/16 09:22:18;;;;;;;2.20;2.00;;;;;;;;;;5053087;28;20471;-58
2023/07/16 09:24:46;;;;;;;2.00;1.80;;;;;;;;;;5053351;28;20425;-59
2023/07/16 09:27:12;;;;;;;2.33;1.57;;;;;;;;;;5053290;28;20555;-59
2023/07/16 09:29:41;;;;;;;5.10;2.17;;;;;;;;;;5053169;28;20502;-59
2023/07/16 09:32:07;;;;;;;3.07;2.10;;;;;;;;;;5053309;28;20414;-59
2023/07/16 09:34:33;;;;;;;4.33;1.90;;;;;;;;;;5053089;28;20524;-59
2023/07/16 09:37:00;;;;;;;4.63;1.93;;;;;;;;;;5053049;28;20869;-60
2023/07/16 09:39:26;;;;;;;3.20;1.77;;;;;;;;;;5052878;28;20440;-60
2023/07/16 09:41:52;;;;;;;3.33;1.90;;;;;;;;;;5053073;28;20469;-59
2023/07/16 09:44:23;;;;;;;4.03;1.87;;;;;;;;;;5053035;28;20434;-59
2023/07/16 09:46:49;;;;;;;2.30;1.80;;;;;;;;;;5053029;28;20414;-60
2023/07/16 09:49:16;;;;;;;6.40;1.93;;;;;;;;;;5052287;28;20442;-59
2023/07/16 09:51:43;;;;;;;2.20;1.70;;;;;;;;;;5050424;28;21016;-59
2023/07/16 09:54:09;;;;;;;6.03;1.93;;;;;;;;;;5052601;28;20777;-59
2023/07/16 09:56:44;;;;;;;3.90;1.93;;;;;;;;;;5052969;28;20530;-59
2023/07/16 09:59:12;;;;;;;4.53;2.17;;;;;;;;;;5052313;28;20433;-59
2023/07/16 10:01:41;;;;;;;2.83;1.70;;;;;;;;;;5052355;28;21121;-58
2023/07/16 10:04:13;;;;;;;4.20;2.30;;;;;;;;;;5052324;28;20433;-59
2023/07/16 10:06:52;;;;;;;4.50;2.00;;;;;;;;;;5052640;28;20786;-59
2023/07/16 10:09:36;;;;;;;2.93;1.73;;;;;;;;;;5052519;28;20786;-59
2023/07/16 10:12:08;;;;;;;2.57;1.70;;;;;;;;;;5052503;28;20471;-59
2023/07/16 10:14:40;;;;;;;3.57;1.70;;;;;;;;;;5052436;28;20495;-59
2023/07/16 10:17:06;;;;;;;3.50;2.17;;;;;;;;;;5052481;28;21012;-58
2023/07/16 10:19:35;;;;;;;5.20;2.00;;;;;;;;;;5052638;28;20471;-59
2023/07/16 10:22:04;;;;;;;5.00;1.87;;;;;;;;;;5052379;28;20474;-59
2023/07/16 10:24:30;;;;;;;2.63;2.27;;;;;;;;;;5051479;28;20439;-59
2023/07/16 10:26:56;;;;;;;4.93;2.00;;;;;;;;;;5050883;28;20421;-59
2023/07/16 10:29:25;;;;;;;5.13;2.03;;;;;;;;;;5052121;28;20418;-59
2023/07/16 10:31:53;;;;;;;5.90;2.03;;;;;;;;;;5051978;28;20420;-58
2023/07/16 10:34:26;;;;;;;3.07;2.23;;;;;;;;;;5050768;28;20786;-59
2023/07/16 10:36:54;;;;;;;6.90;2.33;;;;;;;;;;5051885;28;20458;-58
2023/07/16 10:39:20;;;;;;;3.70;2.13;;;;;;;;;;5051934;28;20885;-59
2023/07/16 10:41:46;;;;;;;4.97;2.27;;;;;;;;;;5052130;28;20454;-59
2023/07/16 10:44:15;;;;;;;3.73;2.00;;;;;;;;;;5052192;28;20880;-59
2023/07/16 10:46:44;;;;;;;1.80;1.70;;;;;;;;;;5051951;28;20414;-59
2023/07/16 10:49:12;;;;;;;3.13;2.40;;;;;;;;;;5051959;28;20434;-59
2023/07/16 10:51:41;;;;;;;4.87;2.33;;;;;;;;;;5052077;28;20518;-58
2023/07/16 10:54:09;;;;;;;2.20;1.83;;;;;;;;;;5052176;28;20415;-59
2023/07/16 10:56:39;;;;;;;2.20;1.80;;;;;;;;;;5051748;28;20423;-59
2023/07/16 10:59:07;;;;;;;1.60;1.50;;;;;;;;;;5051727;28;20425;-58
2023/07/16 11:01:33;;;;;;;4.00;2.23;;;;;;;;;;5051980;28;20478;-59
2023/07/16 11:04:02;;;;;;;1.97;1.87;;;;;;;;;;5055459;28;20431;-58
2023/07/16 11:06:28;;;;;;;4.57;2.00;;;;;;;;;;5037913;28;20438;-58
2023/07/16 11:08:54;;;;;;;6.23;2.10;;;;;;;;;;5055962;28;20928;-58
2023/07/16 11:11:30;;;;;;;4.27;2.40;;;;;;;;;;5055814;28;20472;-58
2023/07/16 11:13:56;;;;;;;3.43;2.07;;;;;;;;;;5055958;28;20440;-58
2023/07/16 11:16:24;;;;;;;2.40;2.00;;;;;;;;;;5055635;28;20510;-58
2023/07/16 11:18:51;;;;;;;5.03;2.47;;;;;;;;;;5055688;28;20434;-58
2023/07/16 11:21:20;;;;;;;2.40;2.03;;;;;;;;;;5055458;28;20462;-58
2023/07/16 11:23:46;;;;;;;2.13;1.90;;;;;;;;;;5055875;28;20424;-58
2023/07/16 11:26:12;;;;;;;2.30;1.70;;;;;;;;;;5054117;28;20442;-58
2023/07/16 11:28:42;;;;;;;4.33;2.30;;;;;;;;;;5049287;28;20460;-58
2023/07/16 11:31:17;;;;;;;3.20;2.23;;;;;;;;;;5035667;28;20512;-58
2023/07/16 11:33:46;;;;;;;3.67;2.17;;;;;;;;;;5035190;28;20426;-59
2023/07/16 11:36:12;;;;;;;2.90;1.90;;;;;;;;;;5035567;28;20474;-59
2023/07/16 11:38:41;;;;;;;3.80;2.00;;;;;;;;;;5035669;28;20414;-59
2023/07/16 11:41:07;;;;;;;4.03;2.57;;;;;;;;;;5034530;28;20463;-58
2023/07/16 11:43:37;;;;;;;4.10;1.73;;;;;;;;;;5035995;28;20470;-59
2023/07/16 11:46:03;;;;;;;4.97;2.40;;;;;;;;;;5035807;28;20447;-58
2023/07/16 11:48:29;;;;;;;2.93;2.03;;;;;;;;;;5035223;28;20444;-58
2023/07/16 11:50:55;;;;;;;2.00;1.83;;;;;;;;;;5035391;28;20432;-58
2023/07/16 11:53:21;;;;;;;8.43;2.13;;;;;;;;;;5035248;28;20410;-59
2023/07/16 11:55:49;;;;;;;4.60;2.07;;;;;;;;;;5035521;28;20509;-58
2023/07/16 11:58:15;;;;;;;3.73;2.00;;;;;;;;;;5033822;28;20811;-59
2023/07/16 12:00:41;;;;;;;3.30;3.00;;;;;;;;;;5035055;28;20446;-58
2023/07/16 12:03:09;;;;;;;3.40;2.27;;;;;;;;;;5034536;28;20822;-58
2023/07/16 12:05:37;;;;;;;6.07;2.10;;;;;;;;;;5034932;28;20571;-59
2023/07/16 12:08:06;;;;;;;4.10;2.10;;;;;;;;;;5035371;28;20499;-59
2023/07/16 12:10:32;;;;;;;6.40;2.30;;;;;;;;;;5034838;28;20441;-59
2023/07/16 12:12:58;;;;;;;3.70;2.10;;;;;;;;;;5034986;28;20407;-59
2023/07/16 12:15:24;;;;;;;2.87;1.90;;;;;;;;;;5033890;28;20464;-59
2023/07/16 12:17:50;;;;;;;4.33;2.60;;;;;;;;;;5034399;28;21014;-58
2023/07/16 12:20:16;;;;;;;4.40;2.23;;;;;;;;;;5034881;28;20443;-59
2023/07/16 12:22:42;;;;;;;3.03;1.80;;;;;;;;;;5034336;28;20467;-58
2023/07/16 12:25:10;;;;;;;1.77;1.67;;;;;;;;;;5034755;28;20464;-59
2023/07/16 12:27:36;;;;;;;6.60;2.40;;;;;;;;;;5034331;28;20447;-59
2023/07/16 12:30:02;;;;;;;4.70;1.80;;;;;;;;;;5034670;28;20765;-59
2023/07/16 12:32:28;;;;;;;2.17;2.07;;;;;;;;;;5034573;28;20892;-59
2023/07/16 12:34:55;;;;;;;3.10;1.67;;;;;;;;;;5034324;28;20419;-59
2023/07/16 12:37:21;;;;;;;2.17;1.80;;;;;;;;;;5034561;28;20517;-59
2023/07/16 12:39:47;;;;;;;2.97;2.03;;;;;;;;;;5033483;28;20423;-59
2023/07/16 12:42:12;;;;;;;2.80;1.73;;;;;;;;;;5034130;28;20962;-59
2023/07/16 12:44:41;;;;;;;4.60;2.00;;;;;;;;;;5033956;28;20420;-59
2023/07/16 12:47:08;;;;;;;1.83;1.73;;;;;;;;;;5034282;28;20439;-58
2023/07/16 12:49:35;;;;;;;5.90;1.97;;;;;;;;;;5034301;28;20479;-59
2023/07/16 12:52:01;;;;;;;4.70;2.20;;;;;;;;;;5034024;28;20435;-59
2023/07/16 12:54:27;;;;;;;28.00;25.00;;;;;;;;;;5034240;28;20405;-59
2023/07/16 12:56:53;;;;;;;3.10;1.97;;;;;;;;;;5034007;28;20450;-58
2023/07/16 12:59:19;;;;;;;7.50;1.90;;;;;;;;;;5034088;28;20415;-59
2023/07/16 13:01:47;;;;;;;5.73;2.03;;;;;;;;;;5033882;28;20478;-59
2023/07/16 13:04:13;;;;;;;4.63;2.10;;;;;;;;;;5033943;28;20436;-59
2023/07/16 13:06:42;;;;;;;2.00;1.90;;;;;;;;;;5033964;28;20427;-59
2023/07/16 13:09:08;;;;;;;3.40;2.07;;;;;;;;;;5033846;28;20486;-59
2023/07/16 13:11:34;;;;;;;3.80;2.00;;;;;;;;;;5033770;28;20443;-58
2023/07/16 13:14:00;;;;;;;10.03;2.30;;;;;;;;;;5033738;28;20555;-58
2023/07/16 13:16:26;;;;;;;2.23;2.00;;;;;;;;;;5033803;28;20941;-59
2023/07/16 13:18:54;;;;;;;4.90;2.50;;;;;;;;;;5033470;28;20431;-59
2023/07/16 13:21:20;;;;;;;5.03;2.37;;;;;;;;;;5032134;28;20832;-59
2023/07/16 13:23:46;;;;;;;2.00;1.53;;;;;;;;;;5033456;28;20494;-59
2023/07/16 13:26:12;;;;;;;2.20;2.00;;;;;;;;;;5033383;28;20759;-58
2023/07/16 13:28:38;;;;;;;2.57;1.90;;;;;;;;;;5033688;28;20427;-58
2023/07/16 13:31:04;;;;;;;3.37;2.17;;;;;;;;;;5033522;28;20469;-59
2023/07/16 13:33:30;;;;;;;5.50;2.13;;;;;;;;;;5033235;28;20414;-58
2023/07/16 13:35:57;;;;;;;1.77;1.67;;;;;;;;;;5033078;28;20419;-59
2023/07/16 13:38:25;;;;;;;2.10;1.90;;;;;;;;;;5033525;28;20397;-60
2023/07/16 13:40:51;;;;;;;4.30;2.00;;;;;;;;;;5032921;28;20417;-60
2023/07/16 13:43:17;;;;;;;2.60;1.90;;;;;;;;;;5033197;28;20495;-60
2023/07/16 13:45:45;;;;;;;2.30;2.10;;;;;;;;;;5032945;28;20415;-60
2023/07/16 13:48:11;;;;;;;4.10;2.00;;;;;;;;;;5033233;28;20443;-60
2023/07/16 13:50:37;;;;;;;2.17;1.90;;;;;;;;;;5033058;28;20418;-60
2023/07/16 13:53:03;;;;;;;2.67;2.47;;;;;;;;;;5033017;28;20475;-60
2023/07/16 13:55:32;;;;;;;4.23;2.27;;;;;;;;;;5032755;28;20905;-60
2023/07/16 13:57:58;;;;;;;5.87;2.57;;;;;;;;;;5032771;28;20462;-60
2023/07/16 14:00:24;;;;;;;3.60;2.60;;;;;;;;;;5032692;28;20429;-60
2023/07/16 14:02:50;;;;;;;2.00;1.90;;;;;;;;;;5032715;28;20961;-59
2023/07/16 14:05:16;;;;;;;2.53;2.33;;;;;;;;;;5032743;28;20948;-60
2023/07/16 14:07:42;;;;;;;5.63;2.47;;;;;;;;;;5032962;28;20432;-60
2023/07/16 14:10:08;;;;;;;3.97;1.93;;;;;;;;;;5032723;28;20856;-61
2023/07/16 14:12:36;;;;;;;3.17;1.93;;;;;;;;;;5031425;28;20455;-60
2023/07/16 14:15:02;;;;;;;1.93;1.83;;;;;;;;;;5032625;28;20413;-60
2023/07/16 14:17:28;;;;;;;3.97;2.03;;;;;;;;;;5032626;28;20509;-60
2023/07/16 14:19:54;;;;;;;4.27;2.33;;;;;;;;;;5033121;28;20434;-59
2023/07/16 14:22:26;;;;;;;2.10;1.90;;;;;;;;;;5031223;28;20847;-60
2023/07/16 14:24:52;;;;;;;5.37;2.37;;;;;;;;;;5032646;28;20410;-60
2023/07/16 14:27:19;;;;;;;5.40;2.80;;;;;;;;;;5032142;28;20487;-60
2023/07/16 14:29:45;;;;;;;3.77;1.93;;;;;;;;;;5031163;28;20419;-60
2023/07/16 14:32:11;;;;;;;3.40;2.23;;;;;;;;;;5032222;28;20925;-60
2023/07/16 14:34:37;;;;;;;2.10;1.97;;;;;;;;;;5031022;28;20423;-60
2023/07/16 14:37:04;;;;;;;7.73;4.27;;;;;;;;;;5031831;28;20914;-60
2023/07/16 14:39:30;;;;;;;2.23;2.03;;;;;;;;;;5032586;28;20403;-60
2023/07/16 14:42:03;;;;;;;2.10;2.00;;;;;;;;;;5032229;28;20836;-60